createdAt,value
2022-10-26T00:00:10.267Z,102054.09
2022-10-26T00:02:40.423Z,102046.25
2022-10-26T00:05:07.674Z,102045.41
2022-10-26T00:07:34.480Z,102044.53
2022-10-26T00:10:01.301Z,102048.78
2022-10-26T00:12:27.995Z,102052.28
2022-10-26T00:14:54.975Z,102048.69
2022-10-26T00:17:21.805Z,102061.72
2022-10-26T00:19:48.638Z,102057.22
2022-10-26T00:22:15.728Z,102064.78
2022-10-26T00:24:42.567Z,102068.22
2022-10-26T00:27:09.249Z,102057.81
2022-10-26T00:29:36.179Z,102063.91
2022-10-26T00:32:03.112Z,102063.94
2022-10-26T00:34:29.871Z,102059.63
2022-10-26T00:36:56.562Z,102065.75
2022-10-26T00:39:23.483Z,102068.44
2022-10-26T00:41:50.192Z,102077.06
2022-10-26T00:44:47.852Z,102071.81
2022-10-26T00:47:39.290Z,102072.63
2022-10-26T00:50:11.873Z,102072.72
2022-10-26T00:52:39.742Z,102076.19
2022-10-26T00:55:07.382Z,102071.84
2022-10-26T01:00:06.886Z,102073.81
2022-10-26T01:02:34.178Z,102072.13
2022-10-26T01:05:03.578Z,102071.25
2022-10-26T01:07:30.633Z,102072.16
2022-10-26T01:09:57.774Z,102069.41
2022-10-26T01:12:24.516Z,102068.59
2022-10-26T01:14:51.638Z,102068.69
2022-10-26T01:17:21.481Z,102069.38
2022-10-26T01:20:01.477Z,102074.50
2022-10-26T01:23:03.668Z,102082.25
2022-10-26T01:25:39.149Z,102081.44
2022-10-26T01:28:45.425Z,102078.03
2022-10-26T01:31:20.531Z,102072.00
2022-10-26T01:33:58.229Z,102063.31
2022-10-26T01:36:51.489Z,102062.34
2022-10-26T01:39:41.801Z,102066.72
2022-10-26T01:42:11.256Z,102067.41
2022-10-26T01:44:46.847Z,102066.66
2022-10-26T01:47:16.741Z,102060.50
2022-10-26T01:49:49.287Z,102063.09
2022-10-26T01:52:18.730Z,102067.44
2022-10-26T01:54:45.698Z,102071.69
2022-10-26T01:57:16.423Z,102072.50
2022-10-26T02:00:01.302Z,102070.03
2022-10-26T02:02:55.853Z,102079.53
2022-10-26T02:05:39.603Z,102083.16
2022-10-26T02:08:15.200Z,102079.03
2022-10-26T02:10:41.992Z,102071.31
2022-10-26T02:13:27.224Z,102070.53
2022-10-26T02:16:10.260Z,102077.53
2022-10-26T02:18:54.183Z,102070.63
2022-10-26T02:21:28.090Z,102069.78
2022-10-26T02:23:58.276Z,102066.38
2022-10-26T02:26:28.957Z,102066.41
2022-10-26T02:28:59.361Z,102070.72
2022-10-26T02:31:27.374Z,102071.56
2022-10-26T02:33:57.983Z,102064.63
2022-10-26T02:36:30.913Z,102068.13
2022-10-26T02:38:58.900Z,102052.59
2022-10-26T02:41:28.379Z,102059.59
2022-10-26T02:44:05.816Z,102057.78
2022-10-26T02:46:32.782Z,102051.63
2022-10-26T02:49:00.866Z,102044.72
2022-10-26T02:51:33.659Z,102038.78
2022-10-26T02:54:27.114Z,102033.63
2022-10-26T02:57:05.559Z,102027.41
2022-10-26T02:59:36.721Z,102020.50
2022-10-26T03:02:04.507Z,102023.13
2022-10-26T03:04:33.439Z,102008.38
2022-10-26T03:07:01.302Z,102009.28
2022-10-26T03:09:28.465Z,101997.19
2022-10-26T03:11:55.784Z,102004.09
2022-10-26T03:14:22.637Z,102003.13
2022-10-26T03:19:16.622Z,102020.16
2022-10-26T03:21:43.414Z,102014.97
2022-10-26T03:24:10.351Z,102021.09
2022-10-26T03:26:37.222Z,102015.03
2022-10-26T03:29:04.548Z,102020.19
2022-10-26T03:31:31.330Z,102020.13
2022-10-26T03:33:58.274Z,102016.66
2022-10-26T03:36:24.968Z,102018.34
2022-10-26T03:38:51.731Z,102017.56
2022-10-26T03:41:18.470Z,102015.03
2022-10-26T03:43:45.332Z,102010.72
2022-10-26T03:46:12.103Z,102014.94
2022-10-26T03:48:38.871Z,102025.16
2022-10-26T03:51:05.714Z,102022.59
2022-10-26T03:53:32.626Z,102019.81
2022-10-26T03:55:59.308Z,102029.16
2022-10-26T04:00:52.711Z,102039.47
2022-10-26T04:03:19.526Z,102045.41
2022-10-26T04:05:46.217Z,102036.59
2022-10-26T04:08:13.034Z,102033.25
2022-10-26T04:10:39.711Z,102028.13
2022-10-26T04:13:06.549Z,102032.50
2022-10-26T04:15:33.309Z,102026.44
2022-10-26T04:18:02.096Z,102040.22
2022-10-26T04:20:30.242Z,102032.38
2022-10-26T04:23:06.128Z,102042.78
2022-10-26T04:25:34.000Z,102041.06
2022-10-26T04:28:03.487Z,102037.38
2022-10-26T04:30:31.093Z,102040.66
2022-10-26T04:32:57.930Z,102040.50
2022-10-26T04:35:24.833Z,102040.66
2022-10-26T04:37:51.696Z,102033.84
2022-10-26T04:40:18.446Z,102038.19
2022-10-26T04:42:47.932Z,102034.72
2022-10-26T04:45:16.400Z,102033.88
2022-10-26T04:47:43.822Z,102021.53
2022-10-26T04:50:12.615Z,102018.91
2022-10-26T04:52:40.177Z,102014.63
2022-10-26T04:55:07.745Z,102021.63
2022-10-26T04:57:35.231Z,102025.91
2022-10-26T05:00:03.114Z,102027.75
2022-10-26T05:02:30.141Z,102025.13
2022-10-26T05:04:57.148Z,102022.41
2022-10-26T05:07:24.106Z,102020.66
2022-10-26T05:09:51.020Z,102025.84
2022-10-26T05:12:17.902Z,102025.06
2022-10-26T05:14:44.712Z,102027.72
2022-10-26T05:17:11.540Z,102034.47
2022-10-26T05:19:38.298Z,102030.78
2022-10-26T05:22:05.257Z,102034.06
2022-10-26T05:24:31.995Z,102034.03
2022-10-26T05:26:59.148Z,102041.69
2022-10-26T05:29:26.145Z,102033.06
2022-10-26T05:31:52.907Z,102036.72
2022-10-26T05:34:19.741Z,102035.13
2022-10-26T05:36:46.628Z,102037.84
2022-10-26T05:39:13.377Z,102030.97
2022-10-26T05:41:40.119Z,102039.66
2022-10-26T05:44:06.870Z,102041.13
2022-10-26T05:46:33.727Z,102042.75
2022-10-26T05:49:00.610Z,102043.59
2022-10-26T05:51:27.399Z,102041.84
2022-10-26T05:53:56.945Z,102034.13
2022-10-26T05:56:39.921Z,102050.44
2022-10-26T05:59:15.189Z,102043.53
2022-10-26T06:02:06.127Z,102044.38
2022-10-26T06:04:47.915Z,102050.47
2022-10-26T06:07:21.954Z,102054.16
2022-10-26T06:09:49.574Z,102059.13
2022-10-26T06:12:19.404Z,102057.25
2022-10-26T06:14:47.116Z,102061.56
2022-10-26T06:17:21.982Z,102053.94
2022-10-26T06:20:16.738Z,102053.31
2022-10-26T06:23:04.595Z,102054.34
2022-10-26T06:25:45.690Z,102050.03
2022-10-26T06:28:28.544Z,102056.03
2022-10-26T06:30:56.343Z,102048.22
2022-10-26T06:33:29.533Z,102050.81
2022-10-26T06:36:21.213Z,102051.72
2022-10-26T06:38:49.450Z,102062.97
2022-10-26T06:41:19.020Z,102075.16
2022-10-26T06:43:46.459Z,102081.16
2022-10-26T06:46:38.690Z,102097.00
2022-10-26T06:49:20.110Z,102092.69
2022-10-26T06:51:56.102Z,102097.97
2022-10-26T06:54:52.346Z,102094.56
2022-10-26T06:57:21.465Z,102098.91
2022-10-26T06:59:57.636Z,102110.19
2022-10-26T07:02:24.737Z,102121.31
2022-10-26T07:04:51.701Z,102125.56
2022-10-26T07:07:21.356Z,102123.03
2022-10-26T07:09:48.617Z,102127.38
2022-10-26T07:12:15.707Z,102130.94
2022-10-26T07:14:42.489Z,102133.56
2022-10-26T07:17:09.944Z,102140.53
2022-10-26T07:19:36.876Z,102142.31
2022-10-26T07:22:04.067Z,102138.94
2022-10-26T07:24:31.454Z,102140.69
2022-10-26T07:26:58.831Z,102134.78
2022-10-26T07:29:26.963Z,102133.09
2022-10-26T07:34:20.769Z,102146.25
2022-10-26T07:36:47.510Z,102143.72
2022-10-26T07:39:14.332Z,102156.75
2022-10-26T07:41:41.059Z,102151.69
2022-10-26T07:44:07.845Z,102157.91
2022-10-26T07:46:34.530Z,102161.50
2022-10-26T07:49:01.349Z,102157.31
2022-10-26T07:51:28.256Z,102166.84
2022-10-26T07:53:55.016Z,102163.44
2022-10-26T07:56:21.909Z,102159.22
2022-10-26T07:58:48.712Z,102160.19
2022-10-26T08:01:16.356Z,102163.69
2022-10-26T08:03:43.373Z,102163.84
2022-10-26T08:06:10.591Z,102162.19
2022-10-26T08:08:37.931Z,102159.72
2022-10-26T08:11:06.001Z,102159.84
2022-10-26T08:13:35.559Z,102153.91
2022-10-26T08:16:04.868Z,102160.13
2022-10-26T08:18:32.347Z,102152.38
2022-10-26T08:21:13.716Z,102167.09
2022-10-26T08:23:44.993Z,102168.81
2022-10-26T08:26:11.726Z,102163.69
2022-10-26T08:28:39.704Z,102169.81
2022-10-26T08:31:07.378Z,102175.06
2022-10-26T08:33:34.364Z,102177.72
2022-10-26T08:36:04.714Z,102182.97
2022-10-26T08:38:33.978Z,102186.47
2022-10-26T08:41:08.541Z,102183.81
2022-10-26T08:43:41.088Z,102187.22
2022-10-26T08:46:22.157Z,102182.00
2022-10-26T08:49:00.485Z,102183.75
2022-10-26T08:51:35.582Z,102184.59
2022-10-26T08:54:14.352Z,102188.22
2022-10-26T08:56:50.006Z,102191.69
2022-10-26T08:59:44.223Z,102200.44
2022-10-26T09:02:16.286Z,102200.56
2022-10-26T09:04:43.931Z,102191.91
2022-10-26T09:07:34.436Z,102190.22
2022-10-26T09:10:56.126Z,102191.94
2022-10-26T09:13:25.522Z,102193.72
2022-10-26T09:16:23.630Z,102192.84
2022-10-26T09:19:12.039Z,102195.44
2022-10-26T09:21:48.927Z,102193.75
2022-10-26T09:24:32.744Z,102191.16
2022-10-26T09:27:12.889Z,102189.44
2022-10-26T09:29:43.855Z,102180.78
2022-10-26T09:32:20.571Z,102186.88
2022-10-26T09:34:55.111Z,102185.16
2022-10-26T09:37:28.837Z,102194.69
2022-10-26T09:40:06.190Z,102194.66
2022-10-26T09:42:45.740Z,102192.06
2022-10-26T09:45:22.477Z,102189.53
2022-10-26T09:47:52.981Z,102190.41
2022-10-26T09:50:36.428Z,102195.63
2022-10-26T09:53:04.084Z,102195.66
2022-10-26T09:55:39.597Z,102203.44
2022-10-26T09:58:14.763Z,102196.53
2022-10-26T10:00:42.895Z,102193.91
2022-10-26T10:03:27.010Z,102200.00
2022-10-26T10:06:15.788Z,102202.59
2022-10-26T10:08:42.755Z,102205.19
2022-10-26T10:11:12.915Z,102199.97
2022-10-26T10:13:43.562Z,102193.88
2022-10-26T10:16:20.097Z,102196.47
2022-10-26T10:18:55.316Z,102199.97
2022-10-26T10:21:33.249Z,102209.50
2022-10-26T10:24:00.128Z,102211.25
2022-10-26T10:26:26.931Z,102203.44
2022-10-26T10:28:59.904Z,102205.16
2022-10-26T10:31:32.516Z,102199.06
2022-10-26T10:33:59.714Z,102206.91
2022-10-26T10:36:30.287Z,102193.88
2022-10-26T10:38:57.201Z,102201.69
2022-10-26T10:41:29.581Z,102212.09
2022-10-26T10:44:05.609Z,102206.03
2022-10-26T10:46:32.739Z,102202.56
2022-10-26T10:49:05.674Z,102206.03
2022-10-26T10:51:40.047Z,102205.16
2022-10-26T10:54:37.326Z,102204.31
2022-10-26T10:57:32.438Z,102199.06
2022-10-26T11:00:04.604Z,102200.84
2022-10-26T11:02:49.442Z,102193.00
2022-10-26T11:06:05.814Z,102192.16
2022-10-26T11:08:35.534Z,102187.81
2022-10-26T11:11:23.235Z,102186.03
2022-10-26T11:13:59.772Z,102191.28
2022-10-26T11:16:32.371Z,102183.44
2022-10-26T11:19:05.010Z,102186.03
2022-10-26T11:21:37.866Z,102172.16
2022-10-26T11:24:24.049Z,102178.22
2022-10-26T11:26:52.810Z,102183.34
2022-10-26T11:29:25.302Z,102176.41
2022-10-26T11:32:03.767Z,102184.22
2022-10-26T11:34:36.626Z,102181.59
2022-10-26T11:37:11.473Z,102178.97
2022-10-26T11:40:02.709Z,102183.34
2022-10-26T11:42:52.893Z,102183.28
2022-10-26T11:45:31.006Z,102181.53
2022-10-26T11:48:02.778Z,102187.59
2022-10-26T11:50:34.610Z,102193.69
2022-10-26T11:53:12.253Z,102184.19
2022-10-26T11:55:41.088Z,102186.78
2022-10-26T11:58:12.657Z,102185.09
2022-10-26T12:00:57.368Z,102186.81
2022-10-26T12:03:28.587Z,102183.38
2022-10-26T12:05:55.542Z,102190.28
2022-10-26T12:08:36.222Z,102191.19
2022-10-26T12:11:14.031Z,102185.03
2022-10-26T12:13:54.918Z,102181.56
2022-10-26T12:16:33.802Z,102180.81
2022-10-26T12:19:13.582Z,102181.69
2022-10-26T12:21:42.686Z,102182.56
2022-10-26T12:24:33.557Z,102174.66
2022-10-26T12:27:03.210Z,102167.69
2022-10-26T12:29:31.629Z,102177.25
2022-10-26T12:31:59.336Z,102172.03
2022-10-26T12:34:32.217Z,102171.97
2022-10-26T12:36:58.949Z,102173.69
2022-10-26T12:39:33.221Z,102168.47
2022-10-26T12:42:06.038Z,102165.03
2022-10-26T12:44:32.777Z,102172.84
2022-10-26T12:46:59.558Z,102168.47
2022-10-26T12:50:00.585Z,102167.63
2022-10-26T12:52:44.628Z,102175.41
2022-10-26T12:55:37.797Z,102172.78
2022-10-26T12:58:04.597Z,102167.56
2022-10-26T13:03:35.206Z,102171.06
2022-10-26T13:06:31.253Z,102162.44
2022-10-26T13:09:02.635Z,102172.03
2022-10-26T13:11:35.174Z,102167.66
2022-10-26T13:14:06.054Z,102160.69
2022-10-26T13:16:33.707Z,102160.69
2022-10-26T13:19:01.020Z,102157.22
2022-10-26T13:21:28.394Z,102152.88
2022-10-26T13:23:55.062Z,102159.81
2022-10-26T13:26:24.584Z,102157.19
2022-10-26T13:28:57.472Z,102158.94
2022-10-26T13:31:24.264Z,102156.31
2022-10-26T13:33:56.269Z,102165.84
2022-10-26T13:36:26.142Z,102158.94
2022-10-26T13:38:54.212Z,102153.72
2022-10-26T13:41:35.745Z,102152.00
2022-10-26T13:44:21.353Z,102144.97
2022-10-26T13:46:56.847Z,102149.28
2022-10-26T13:49:30.226Z,102152.78
2022-10-26T13:52:01.774Z,102156.25
2022-10-26T13:54:35.876Z,102150.22
2022-10-26T13:57:21.470Z,102152.88
2022-10-26T13:59:48.302Z,102160.66
2022-10-26T14:02:22.613Z,102156.31
2022-10-26T14:04:54.871Z,102157.16
2022-10-26T14:07:25.833Z,102155.44
2022-10-26T14:09:57.832Z,102150.19
2022-10-26T14:12:28.408Z,102148.44
2022-10-26T14:15:05.477Z,102161.50
2022-10-26T14:17:33.281Z,102163.22
2022-10-26T14:20:00.662Z,102163.22
2022-10-26T14:22:30.123Z,102159.78
2022-10-26T14:24:59.401Z,102158.06
2022-10-26T14:27:31.387Z,102160.66
2022-10-26T14:30:21.037Z,102158.97
2022-10-26T14:32:45.149Z,102164.13
2022-10-26T14:35:13.557Z,102165.91
2022-10-26T14:37:52.401Z,102170.38
2022-10-26T14:40:22.262Z,102167.78
2022-10-26T14:42:54.533Z,102166.06
2022-10-26T14:45:47.608Z,102166.91
2022-10-26T14:48:35.794Z,102172.13
2022-10-26T14:51:08.245Z,102174.72
2022-10-26T14:53:39.179Z,102173.00
2022-10-26T14:56:21.626Z,102183.44
2022-10-26T14:58:49.387Z,102174.75
2022-10-26T15:01:22.511Z,102174.75
2022-10-26T15:03:55.732Z,102183.44
2022-10-26T15:06:29.631Z,102174.75
2022-10-26T15:08:58.965Z,102175.59
2022-10-26T15:11:27.202Z,102184.31
2022-10-26T15:13:55.344Z,102183.44
2022-10-26T15:16:23.221Z,102175.66
2022-10-26T15:19:14.416Z,102181.72
2022-10-26T15:21:47.894Z,102182.59
2022-10-26T15:24:38.783Z,102181.72
2022-10-26T15:27:15.741Z,102189.53
2022-10-26T15:29:45.402Z,102179.13
2022-10-26T15:32:33.182Z,102186.09
2022-10-26T15:35:11.988Z,102179.16
2022-10-26T15:37:39.493Z,102179.16
2022-10-26T15:40:07.028Z,102180.03
2022-10-26T15:42:38.322Z,102184.38
2022-10-26T15:45:26.332Z,102186.94
2022-10-26T15:47:56.768Z,102187.84
2022-10-26T15:50:25.881Z,102183.47
2022-10-26T15:53:01.660Z,102187.81
2022-10-26T15:55:31.744Z,102204.25
2022-10-26T15:57:58.623Z,102202.53
2022-10-26T16:00:25.403Z,102200.78
2022-10-26T16:02:54.998Z,102201.63
2022-10-26T16:05:22.195Z,102204.22
2022-10-26T16:07:49.432Z,102206.78
2022-10-26T16:10:25.311Z,102212.81
2022-10-26T16:12:52.719Z,102222.31
2022-10-26T16:15:24.814Z,102223.19
2022-10-26T16:17:52.477Z,102223.19
2022-10-26T16:20:23.959Z,102225.72
2022-10-26T16:22:53.936Z,102227.41
2022-10-26T16:25:24.892Z,102224.78
2022-10-26T16:27:53.046Z,102227.34
2022-10-26T16:30:21.462Z,102231.66
2022-10-26T16:32:49.131Z,102223.81
2022-10-26T16:35:16.368Z,102222.88
2022-10-26T16:37:43.305Z,102230.72
2022-10-26T16:40:10.661Z,102227.19
2022-10-26T16:42:37.677Z,102232.31
2022-10-26T16:45:04.843Z,102235.75
2022-10-26T16:47:35.670Z,102237.44
2022-10-26T16:50:04.112Z,102234.84
2022-10-26T16:52:30.857Z,102235.69
2022-10-26T16:54:57.694Z,102242.63
2022-10-26T16:57:24.480Z,102245.22
2022-10-26T16:59:51.519Z,102240.88
2022-10-26T17:02:18.567Z,102249.47
2022-10-26T17:04:45.582Z,102250.31
2022-10-26T17:07:12.819Z,102245.97
2022-10-26T17:09:39.763Z,102258.03
2022-10-26T17:12:06.983Z,102256.22
2022-10-26T17:14:34.522Z,102258.81
2022-10-26T17:17:01.315Z,102262.28
2022-10-26T17:19:28.165Z,102264.78
2022-10-26T17:21:55.212Z,102263.06
2022-10-26T17:24:22.187Z,102261.41
2022-10-26T17:26:48.896Z,102261.34
2022-10-26T17:29:15.982Z,102259.69
2022-10-26T17:31:43.059Z,102265.75
2022-10-26T17:34:10.077Z,102257.09
2022-10-26T17:36:37.073Z,102262.19
2022-10-26T17:39:04.309Z,102270.78
2022-10-26T17:41:31.350Z,102274.19
2022-10-26T17:43:58.238Z,102271.59
2022-10-26T17:46:26.879Z,102283.75
2022-10-26T17:48:58.466Z,102285.50
2022-10-26T17:51:26.915Z,102290.63
2022-10-26T17:53:54.319Z,102293.19
2022-10-26T17:56:23.872Z,102301.72
2022-10-26T17:59:01.714Z,102297.22
2022-10-26T18:01:29.504Z,102296.16
2022-10-26T18:03:56.535Z,102303.16
2022-10-26T18:06:24.621Z,102307.44
2022-10-26T18:08:51.702Z,102303.88
2022-10-26T18:11:26.803Z,102309.94
2022-10-26T18:13:58.347Z,102305.59
2022-10-26T18:16:27.473Z,102308.84
2022-10-26T18:19:04.362Z,102309.56
2022-10-26T18:21:38.682Z,102307.03
2022-10-26T18:24:07.697Z,102316.72
2022-10-26T18:26:35.368Z,102317.63
2022-10-26T18:29:04.069Z,102315.06
2022-10-26T18:31:32.609Z,102321.97
2022-10-26T18:34:02.028Z,102322.88
2022-10-26T18:36:30.091Z,102318.56
2022-10-26T18:38:57.544Z,102330.72
2022-10-26T18:41:25.624Z,102325.53
2022-10-26T18:43:58.835Z,102331.63
2022-10-26T18:46:28.660Z,102327.28
2022-10-26T18:48:57.625Z,102328.19
2022-10-26T18:51:29.013Z,102328.06
2022-10-26T18:53:57.697Z,102332.31
2022-10-26T18:56:25.128Z,102337.56
2022-10-26T18:58:55.701Z,102333.22
2022-10-26T19:01:27.070Z,102334.09
2022-10-26T19:04:08.964Z,102336.66
2022-10-26T19:06:45.629Z,102340.91
2022-10-26T19:09:14.220Z,102340.66
2022-10-26T19:11:44.804Z,102345.72
2022-10-26T19:14:12.664Z,102346.53
2022-10-26T19:16:45.704Z,102348.22
2022-10-26T19:19:15.141Z,102354.94
2022-10-26T19:21:42.090Z,102352.50
2022-10-26T19:24:20.233Z,102349.94
2022-10-26T19:26:48.413Z,102355.09
2022-10-26T19:29:16.880Z,102353.31
2022-10-26T19:31:46.818Z,102366.25
2022-10-26T19:34:15.977Z,102368.69
2022-10-26T19:36:45.317Z,102376.34
2022-10-26T19:39:18.892Z,102374.56
2022-10-26T19:41:46.843Z,102371.00
2022-10-26T19:44:14.956Z,102382.25
2022-10-26T19:46:43.466Z,102385.75
2022-10-26T19:49:12.634Z,102382.41
2022-10-26T19:51:39.992Z,102383.41
2022-10-26T19:54:08.232Z,102382.59
2022-10-26T19:56:37.557Z,102378.34
2022-10-26T19:59:05.846Z,102379.25
2022-10-26T20:01:33.057Z,102381.63
2022-10-26T20:04:02.720Z,102389.38
2022-10-26T20:06:30.988Z,102386.00
2022-10-26T20:08:58.809Z,102387.78
2022-10-26T20:11:26.409Z,102380.97
2022-10-26T20:13:56.582Z,102390.56
2022-10-26T20:16:24.771Z,102387.16
2022-10-26T20:18:51.798Z,102388.84
2022-10-26T20:21:20.409Z,102393.31
2022-10-26T20:23:47.532Z,102395.91
2022-10-26T20:26:18.451Z,102391.44
2022-10-26T20:28:49.088Z,102398.25
2022-10-26T20:31:16.221Z,102400.81
2022-10-26T20:33:43.371Z,102401.47
2022-10-26T20:36:10.419Z,102404.91
2022-10-26T20:38:39.565Z,102401.56
2022-10-26T20:41:12.291Z,102405.88
2022-10-26T20:43:40.828Z,102398.00
2022-10-26T20:46:11.354Z,102417.06
2022-10-26T20:48:38.958Z,102415.13
2022-10-26T20:53:44.575Z,102421.13
2022-10-26T20:56:22.620Z,102423.72
2022-10-26T20:58:53.932Z,102426.28
2022-10-26T21:01:23.881Z,102427.22
2022-10-26T21:03:52.615Z,102422.84
2022-10-26T21:06:21.160Z,102433.25
2022-10-26T21:08:51.100Z,102441.69
2022-10-26T21:11:19.522Z,102433.69
2022-10-26T21:13:48.061Z,102438.69
2022-10-26T21:16:15.923Z,102437.72
2022-10-26T21:18:43.483Z,102435.00
2022-10-26T21:21:10.972Z,102436.66
2022-10-26T21:23:40.091Z,102430.63
2022-10-26T21:26:08.795Z,102437.59
2022-10-26T21:28:47.828Z,102431.50
2022-10-26T21:31:17.090Z,102428.19
2022-10-26T21:33:46.859Z,102425.81
2022-10-26T21:36:14.947Z,102432.88
2022-10-26T21:38:44.127Z,102435.53
2022-10-26T21:41:20.392Z,102435.56
2022-10-26T21:43:59.257Z,102432.13
2022-10-26T21:46:38.310Z,102431.78
2022-10-26T21:49:05.784Z,102430.53
2022-10-26T21:51:32.715Z,102431.31
2022-10-26T21:53:59.495Z,102437.53
2022-10-26T21:56:26.460Z,102428.16
2022-10-26T21:58:53.436Z,102436.03
2022-10-26T22:01:22.377Z,102446.47
2022-10-26T22:03:49.976Z,102442.09
2022-10-26T22:06:21.560Z,102437.59
2022-10-26T22:08:48.795Z,102440.13
2022-10-26T22:11:18.568Z,102441.69
2022-10-26T22:13:47.687Z,102438.13
2022-10-26T22:16:26.020Z,102435.59
2022-10-26T22:18:54.894Z,102442.38
2022-10-26T22:21:23.503Z,102444.16
2022-10-26T22:23:50.538Z,102442.56
2022-10-26T22:26:22.908Z,102446.88
2022-10-26T22:28:54.819Z,102443.34
2022-10-26T22:34:04.748Z,102444.56
2022-10-26T22:36:34.549Z,102444.28
2022-10-26T22:39:01.312Z,102431.97
2022-10-26T22:41:28.098Z,102436.38
2022-10-26T22:43:57.586Z,102429.53
2022-10-26T22:46:26.496Z,102430.53
2022-10-26T22:48:54.990Z,102437.31
2022-10-26T22:51:23.186Z,102434.78
2022-10-26T22:53:54.829Z,102438.31
2022-10-26T22:56:23.600Z,102443.56
2022-10-26T22:58:54.304Z,102438.25
2022-10-26T23:01:22.212Z,102444.16
2022-10-26T23:03:49.462Z,102450.22
2022-10-26T23:06:18.757Z,102448.47
2022-10-26T23:08:46.013Z,102446.75
2022-10-26T23:11:16.409Z,102442.50
2022-10-26T23:13:43.589Z,102432.06
2022-10-26T23:16:14.764Z,102436.28
2022-10-26T23:18:41.828Z,102438.06
2022-10-26T23:21:10.250Z,102430.25
2022-10-26T23:23:37.598Z,102431.06
2022-10-26T23:26:15.980Z,102431.63
2022-10-26T23:28:43.848Z,102436.81
2022-10-26T23:31:18.559Z,102437.88
2022-10-26T23:33:45.718Z,102436.81
2022-10-26T23:36:13.000Z,102437.75
2022-10-26T23:38:39.881Z,102442.78
2022-10-26T23:41:09.412Z,102435.69
2022-10-26T23:43:39.218Z,102442.44
2022-10-26T23:46:05.974Z,102440.69
2022-10-26T23:48:32.838Z,102445.91
2022-10-26T23:50:59.541Z,102438.06
2022-10-26T23:53:26.698Z,102440.69
2022-10-26T23:55:53.651Z,102435.69
2022-10-26T23:58:20.542Z,102436.69
